sensor_id;sensor_type;location;lat;lon;timestamp;temperature;humidity
73875;HTU21D;62209;47.568;7.558;2022-10-16T00:04:27;14.72;107.69
73875;HTU21D;62209;47.568;7.558;2022-10-16T00:19:33;14.73;107.30
73875;HTU21D;62209;47.568;7.558;2022-10-16T00:34:38;14.83;107.25
73875;HTU21D;62209;47.568;7.558;2022-10-16T00:49:44;14.74;107.60
73875;HTU21D;62209;47.568;7.558;2022-10-16T01:04:51;14.75;106.98
73875;HTU21D;62209;47.568;7.558;2022-10-16T01:20:07;14.58;107.59
73875;HTU21D;62209;47.568;7.558;2022-10-16T01:35:18;14.43;107.66
73875;HTU21D;62209;47.568;7.558;2022-10-16T01:50:27;14.42;107.79
73875;HTU21D;62209;47.568;7.558;2022-10-16T02:05:34;14.45;108.04
73875;HTU21D;62209;47.568;7.558;2022-10-16T02:20:45;14.33;108.13
73875;HTU21D;62209;47.568;7.558;2022-10-16T02:35:55;14.33;108.11
73875;HTU21D;62209;47.568;7.558;2022-10-16T02:51:02;14.32;108.14
73875;HTU21D;62209;47.568;7.558;2022-10-16T03:06:08;14.26;108.55
73875;HTU21D;62209;47.568;7.558;2022-10-16T03:21:14;14.14;108.47
73875;HTU21D;62209;47.568;7.558;2022-10-16T03:36:20;14.29;108.53
73875;HTU21D;62209;47.568;7.558;2022-10-16T03:51:25;14.22;108.62
73875;HTU21D;62209;47.568;7.558;2022-10-16T04:06:31;14.30;108.40
73875;HTU21D;62209;47.568;7.558;2022-10-16T04:21:36;14.37;108.37
73875;HTU21D;62209;47.568;7.558;2022-10-16T04:36:42;14.42;108.14
73875;HTU21D;62209;47.568;7.558;2022-10-16T04:51:48;14.33;108.07
73875;HTU21D;62209;47.568;7.558;2022-10-16T05:06:53;14.27;108.41
73875;HTU21D;62209;47.568;7.558;2022-10-16T05:21:59;14.17;108.25
73875;HTU21D;62209;47.568;7.558;2022-10-16T05:37:05;14.15;108.37
73875;HTU21D;62209;47.568;7.558;2022-10-16T05:52:10;13.86;108.44
73875;HTU21D;62209;47.568;7.558;2022-10-16T06:07:16;13.86;108.90
73875;HTU21D;62209;47.568;7.558;2022-10-16T06:22:22;14.08;109.01
73875;HTU21D;62209;47.568;7.558;2022-10-16T06:37:28;14.33;108.48
73875;HTU21D;62209;47.568;7.558;2022-10-16T06:52:34;14.65;108.40
73875;HTU21D;62209;47.568;7.558;2022-10-16T07:07:39;15.30;106.66
73875;HTU21D;62209;47.568;7.558;2022-10-16T07:22:45;16.62;102.86
73875;HTU21D;62209;47.568;7.558;2022-10-16T07:37:50;17.33;100.61
73875;HTU21D;62209;47.568;7.558;2022-10-16T07:52:56;19.14;95.35
73875;HTU21D;62209;47.568;7.558;2022-10-16T08:08:02;20.14;92.39
73875;HTU21D;62209;47.568;7.558;2022-10-16T08:23:08;21.06;88.47
73875;HTU21D;62209;47.568;7.558;2022-10-16T08:38:15;21.57;87.72
73875;HTU21D;62209;47.568;7.558;2022-10-16T08:53:23;20.93;89.63
73875;HTU21D;62209;47.568;7.558;2022-10-16T09:08:34;20.64;90.01
73875;HTU21D;62209;47.568;7.558;2022-10-16T09:23:45;21.18;88.74
73875;HTU21D;62209;47.568;7.558;2022-10-16T09:39:00;23.76;81.55
73875;HTU21D;62209;47.568;7.558;2022-10-16T09:54:14;23.88;80.16
73875;HTU21D;62209;47.568;7.558;2022-10-16T10:09:22;24.19;77.26
73875;HTU21D;62209;47.568;7.558;2022-10-16T10:24:29;24.77;76.77
73875;HTU21D;62209;47.568;7.558;2022-10-16T10:39:35;25.08;76.04
73875;HTU21D;62209;47.568;7.558;2022-10-16T10:54:49;25.84;76.72
73875;HTU21D;62209;47.568;7.558;2022-10-16T11:10:02;25.59;76.89
73875;HTU21D;62209;47.568;7.558;2022-10-16T11:25:14;25.35;76.52
73875;HTU21D;62209;47.568;7.558;2022-10-16T11:40:25;26.15;77.98
73875;HTU21D;62209;47.568;7.558;2022-10-16T11:55:37;25.56;77.48
73875;HTU21D;62209;47.568;7.558;2022-10-16T12:10:49;25.64;75.85
73875;HTU21D;62209;47.568;7.558;2022-10-16T12:25:56;25.72;75.02
73875;HTU21D;62209;47.568;7.558;2022-10-16T12:41:04;25.81;74.60
73875;HTU21D;62209;47.568;7.558;2022-10-16T12:56:13;25.83;74.29
73875;HTU21D;62209;47.568;7.558;2022-10-16T13:11:26;25.84;71.54
73875;HTU21D;62209;47.568;7.558;2022-10-16T13:26:50;25.88;70.33
73875;HTU21D;62209;47.568;7.558;2022-10-16T13:42:04;25.80;74.15
73875;HTU21D;62209;47.568;7.558;2022-10-16T13:57:13;25.76;72.54
73875;HTU21D;62209;47.568;7.558;2022-10-16T14:12:31;25.87;71.77
73875;HTU21D;62209;47.568;7.558;2022-10-16T14:27:37;25.56;71.93
73875;HTU21D;62209;47.568;7.558;2022-10-16T14:42:44;25.66;72.16
73875;HTU21D;62209;47.568;7.558;2022-10-16T14:57:50;25.48;73.88
73875;HTU21D;62209;47.568;7.558;2022-10-16T15:13:02;24.99;73.46
73875;HTU21D;62209;47.568;7.558;2022-10-16T15:28:08;24.68;74.57
73875;HTU21D;62209;47.568;7.558;2022-10-16T15:43:15;24.32;75.60
73875;HTU21D;62209;47.568;7.558;2022-10-16T15:58:21;24.08;76.88
73875;HTU21D;62209;47.568;7.558;2022-10-16T16:13:27;23.35;78.01
73875;HTU21D;62209;47.568;7.558;2022-10-16T16:28:33;22.11;85.38
73875;HTU21D;62209;47.568;7.558;2022-10-16T16:43:39;21.52;81.87
73875;HTU21D;62209;47.568;7.558;2022-10-16T16:58:46;20.76;83.99
73875;HTU21D;62209;47.568;7.558;2022-10-16T17:13:52;20.33;84.28
73875;HTU21D;62209;47.568;7.558;2022-10-16T17:28:59;19.95;85.78
73875;HTU21D;62209;47.568;7.558;2022-10-16T17:44:06;19.67;86.22
73875;HTU21D;62209;47.568;7.558;2022-10-16T17:59:12;19.28;87.51
73875;HTU21D;62209;47.568;7.558;2022-10-16T18:14:18;19.10;87.40
73875;HTU21D;62209;47.568;7.558;2022-10-16T18:29:24;18.95;88.31
73875;HTU21D;62209;47.568;7.558;2022-10-16T18:44:32;18.68;88.99
73875;HTU21D;62209;47.568;7.558;2022-10-16T18:59:39;18.49;88.99
73875;HTU21D;62209;47.568;7.558;2022-10-16T19:14:44;18.23;90.45
73875;HTU21D;62209;47.568;7.558;2022-10-16T19:29:52;17.94;91.99
73875;HTU21D;62209;47.568;7.558;2022-10-16T19:44:58;17.73;92.11
73875;HTU21D;62209;47.568;7.558;2022-10-16T20:00:04;17.54;92.68
73875;HTU21D;62209;47.568;7.558;2022-10-16T20:15:12;17.28;93.38
73875;HTU21D;62209;47.568;7.558;2022-10-16T20:30:18;17.02;96.07
73875;HTU21D;62209;47.568;7.558;2022-10-16T20:45:24;16.72;96.30
73875;HTU21D;62209;47.568;7.558;2022-10-16T21:00:29;16.47;97.30
73875;HTU21D;62209;47.568;7.558;2022-10-16T21:15:36;16.26;98.00
73875;HTU21D;62209;47.568;7.558;2022-10-16T21:30:42;16.24;97.77
73875;HTU21D;62209;47.568;7.558;2022-10-16T21:45:48;16.13;98.24
73875;HTU21D;62209;47.568;7.558;2022-10-16T22:00:54;16.04;98.32
73875;HTU21D;62209;47.568;7.558;2022-10-16T22:15:59;15.97;98.38
73875;HTU21D;62209;47.568;7.558;2022-10-16T22:31:07;15.77;99.46
73875;HTU21D;62209;47.568;7.558;2022-10-16T22:46:15;15.65;99.09
73875;HTU21D;62209;47.568;7.558;2022-10-16T23:01:23;15.71;99.99
73875;HTU21D;62209;47.568;7.558;2022-10-16T23:16:30;15.51;100.09
73875;HTU21D;62209;47.568;7.558;2022-10-16T23:31:36;15.16;100.91
73875;HTU21D;62209;47.568;7.558;2022-10-16T23:46:42;15.13;101.74
